createdAt,value
2019-03-28T00:02:35.682Z,5.27
2019-03-28T00:07:39.983Z,5.17
2019-03-28T00:12:44.298Z,4.90
2019-03-28T00:17:48.818Z,4.80
2019-03-28T00:23:03.474Z,4.70
2019-03-28T00:28:07.802Z,4.90
2019-03-28T00:33:12.702Z,4.93
2019-03-28T00:38:17.117Z,5.03
2019-03-28T00:43:21.445Z,4.87
2019-03-28T00:48:25.711Z,5.13
2019-03-28T00:53:29.972Z,4.13
2019-03-28T00:58:34.416Z,4.30
2019-03-28T01:03:38.685Z,4.33
2019-03-28T01:08:42.898Z,4.13
2019-03-28T01:13:47.188Z,4.00
2019-03-28T01:18:51.500Z,4.70
2019-03-28T01:23:55.807Z,4.27
2019-03-28T01:29:00.042Z,4.20
2019-03-28T01:34:04.291Z,4.37
2019-03-28T01:39:08.614Z,4.73
2019-03-28T01:44:18.740Z,5.10
2019-03-28T01:49:18.920Z,3.87
2019-03-28T01:54:23.158Z,3.70
2019-03-28T01:59:27.388Z,3.97
2019-03-28T02:04:31.738Z,4.07
2019-03-28T02:09:36.016Z,4.30
2019-03-28T02:14:40.828Z,3.40
2019-03-28T02:19:45.196Z,4.10
2019-03-28T02:24:49.564Z,3.80
2019-03-28T02:29:53.773Z,3.33
2019-03-28T02:34:58.041Z,3.80
2019-03-28T02:40:02.297Z,3.70
2019-03-28T02:45:07.015Z,3.50
2019-03-28T02:50:11.586Z,3.63
2019-03-28T02:55:16.089Z,3.17
2019-03-28T03:00:20.960Z,3.10
2019-03-28T03:05:25.596Z,2.30
2019-03-28T03:10:29.819Z,2.97
2019-03-28T03:15:34.067Z,3.17
2019-03-28T03:20:38.325Z,3.10
2019-03-28T03:25:42.593Z,3.20
2019-03-28T03:30:46.769Z,3.10
2019-03-28T03:35:50.954Z,2.53
2019-03-28T03:40:55.110Z,2.30
2019-03-28T03:45:59.354Z,2.83
2019-03-28T03:51:03.659Z,3.30
2019-03-28T03:56:08.067Z,2.80
2019-03-28T04:01:12.402Z,2.77
2019-03-28T04:06:16.654Z,2.90
2019-03-28T04:11:20.974Z,3.13
2019-03-28T04:16:25.225Z,3.00
2019-03-28T04:21:29.957Z,2.33
2019-03-28T04:26:34.202Z,2.80
2019-03-28T04:31:38.410Z,2.63
2019-03-28T04:36:42.688Z,2.87
2019-03-28T04:41:47.041Z,2.77
2019-03-28T04:46:51.444Z,2.53
2019-03-28T04:51:55.757Z,2.63
2019-03-28T04:57:00.058Z,2.53
2019-03-28T05:02:05.073Z,3.10
2019-03-28T05:07:09.799Z,2.83
2019-03-28T05:12:14.127Z,2.60
2019-03-28T05:17:18.837Z,2.40
2019-03-28T05:22:23.023Z,2.90
2019-03-28T05:27:27.406Z,2.80
2019-03-28T05:32:31.763Z,2.80
2019-03-28T05:37:36.521Z,3.17
2019-03-28T05:42:41.156Z,3.10
2019-03-28T05:48:04.596Z,3.10
2019-03-28T05:53:08.876Z,3.00
2019-03-28T05:58:13.214Z,3.70
2019-03-28T06:03:18.003Z,4.07
2019-03-28T06:08:22.249Z,4.00
2019-03-28T06:13:26.523Z,3.93
2019-03-28T06:18:30.941Z,4.23
2019-03-28T06:23:35.215Z,4.10
2019-03-28T06:28:40.540Z,4.43
2019-03-28T06:33:44.827Z,3.70
2019-03-28T06:38:50.236Z,4.17
2019-03-28T06:43:54.913Z,3.70
2019-03-28T06:48:59.232Z,4.00
2019-03-28T06:54:04.418Z,3.83
2019-03-28T06:59:11.749Z,4.50
2019-03-28T07:04:16.081Z,4.20
2019-03-28T07:09:20.519Z,4.00
2019-03-28T07:14:24.797Z,3.90
2019-03-28T07:19:29.159Z,3.90
2019-03-28T07:24:33.640Z,4.37
2019-03-28T07:29:57.044Z,4.00
2019-03-28T07:35:01.507Z,3.10
2019-03-28T07:40:06.580Z,2.80
2019-03-28T07:45:10.919Z,3.10
2019-03-28T07:50:15.252Z,3.17
2019-03-28T07:55:19.511Z,3.63
2019-03-28T08:00:23.840Z,3.53
2019-03-28T08:05:28.768Z,3.60
2019-03-28T08:10:34.684Z,3.30
2019-03-28T08:15:39.389Z,3.00
2019-03-28T08:20:44.026Z,3.10
2019-03-28T08:25:49.320Z,3.40
2019-03-28T08:30:53.923Z,3.17
2019-03-28T08:35:58.241Z,3.10
2019-03-28T08:41:02.866Z,3.90
2019-03-28T08:46:08.736Z,3.23
2019-03-28T08:51:13.325Z,2.93
2019-03-28T08:56:17.908Z,3.70
2019-03-28T09:01:26.208Z,2.53
2019-03-28T09:06:30.574Z,3.00
2019-03-28T09:11:34.905Z,2.90
2019-03-28T09:16:39.228Z,3.20
2019-03-28T09:21:43.526Z,2.37
2019-03-28T09:26:47.852Z,2.40
2019-03-28T09:31:52.194Z,2.17
2019-03-28T09:36:56.569Z,2.87
2019-03-28T09:42:00.860Z,2.90
2019-03-28T09:47:05.287Z,2.70
2019-03-28T09:52:09.788Z,2.90
2019-03-28T09:57:14.040Z,2.90
2019-03-28T10:02:18.267Z,2.43
2019-03-28T10:07:23.774Z,2.53
2019-03-28T10:12:28.162Z,2.90
2019-03-28T10:17:32.452Z,2.70
2019-03-28T10:22:36.656Z,2.60
2019-03-28T10:27:40.878Z,2.57
2019-03-28T10:32:45.187Z,2.37
2019-03-28T10:37:49.495Z,2.60
2019-03-28T10:42:53.798Z,2.60
2019-03-28T10:47:59.467Z,2.60
2019-03-28T10:53:03.684Z,2.30
2019-03-28T10:58:18.221Z,2.57
2019-03-28T11:03:14.028Z,2.70
2019-03-28T11:08:37.538Z,2.43
2019-03-28T11:13:53.314Z,2.50
2019-03-28T11:18:57.585Z,2.00
2019-03-28T11:24:02.004Z,2.60
2019-03-28T11:29:09.249Z,2.50
2019-03-28T11:34:14.668Z,2.70
2019-03-28T11:39:19.264Z,3.20
2019-03-28T11:44:25.139Z,2.53
2019-03-28T11:49:29.438Z,2.77
2019-03-28T11:54:33.697Z,2.27
2019-03-28T11:59:39.745Z,2.93
2019-03-28T12:04:44.482Z,2.50
2019-03-28T12:09:48.855Z,2.60
2019-03-28T12:14:53.295Z,2.10
2019-03-28T12:20:00.621Z,2.67
2019-03-28T12:25:05.113Z,2.83
2019-03-28T12:30:10.707Z,2.67
2019-03-28T12:35:15.176Z,2.67
2019-03-28T12:40:19.539Z,2.80
2019-03-28T12:45:24.150Z,2.10
2019-03-28T12:50:28.500Z,2.20
2019-03-28T12:55:32.961Z,3.03
2019-03-28T13:00:39.958Z,2.17
2019-03-28T13:05:44.277Z,2.30
2019-03-28T13:10:48.707Z,2.73
2019-03-28T13:15:53.145Z,2.00
2019-03-28T13:20:57.536Z,2.33
2019-03-28T13:26:02.079Z,2.50
2019-03-28T13:31:07.111Z,2.40
2019-03-28T13:36:12.379Z,2.03
2019-03-28T13:41:17.472Z,2.27
2019-03-28T13:46:22.395Z,2.33
2019-03-28T13:51:26.736Z,2.00
2019-03-28T13:56:31.065Z,2.40
2019-03-28T14:01:35.475Z,2.20
2019-03-28T14:06:43.013Z,2.40
2019-03-28T14:11:47.334Z,2.40
2019-03-28T14:16:53.174Z,1.90
2019-03-28T14:21:58.117Z,2.37
2019-03-28T14:27:02.557Z,1.90
2019-03-28T14:32:08.893Z,3.00
2019-03-28T14:37:12.975Z,1.90
2019-03-28T14:42:19.642Z,2.33
2019-03-28T14:47:23.250Z,2.80
2019-03-28T14:52:27.913Z,1.80
2019-03-28T14:57:32.299Z,1.90
2019-03-28T15:02:38.681Z,2.30
2019-03-28T15:07:42.932Z,2.17
2019-03-28T15:12:47.460Z,2.53
2019-03-28T15:17:51.866Z,2.00
2019-03-28T15:22:56.349Z,1.63
2019-03-28T15:28:00.923Z,2.10
2019-03-28T15:33:05.267Z,2.13
2019-03-28T15:38:09.551Z,2.37
2019-03-28T15:43:13.896Z,2.13
2019-03-28T15:48:18.265Z,1.73
2019-03-28T15:53:23.203Z,2.30
2019-03-28T15:58:28.082Z,2.60
2019-03-28T16:03:32.431Z,1.83
2019-03-28T16:08:37.006Z,2.03
2019-03-28T16:13:41.457Z,2.20
2019-03-28T16:18:46.037Z,1.77
2019-03-28T16:23:50.442Z,1.90
2019-03-28T16:28:56.438Z,2.03
2019-03-28T16:34:06.646Z,2.20
2019-03-28T16:39:07.986Z,2.50
2019-03-28T16:44:12.266Z,2.43
2019-03-28T16:49:16.640Z,2.10
2019-03-28T16:54:22.740Z,2.13
2019-03-28T16:59:27.044Z,2.50
2019-03-28T17:04:31.415Z,2.87
2019-03-28T17:09:37.558Z,2.43
2019-03-28T17:14:41.776Z,2.57
2019-03-28T17:19:46.883Z,2.00
2019-03-28T17:24:51.325Z,2.70
2019-03-28T17:29:55.746Z,2.60
2019-03-28T17:35:00.113Z,2.33
2019-03-28T17:40:04.842Z,2.23
2019-03-28T17:45:09.288Z,2.20
2019-03-28T17:50:13.630Z,1.90
2019-03-28T17:55:19.745Z,2.13
2019-03-28T18:00:24.154Z,2.83
2019-03-28T18:05:28.513Z,2.50
2019-03-28T18:10:32.875Z,3.03
2019-03-28T18:15:37.153Z,2.17
2019-03-28T18:20:41.554Z,3.03
2019-03-28T18:25:45.983Z,3.17
2019-03-28T18:30:53.028Z,3.07
2019-03-28T18:35:57.305Z,3.00
2019-03-28T18:41:01.553Z,2.90
2019-03-28T18:46:06.035Z,3.10
2019-03-28T18:51:10.358Z,3.70
2019-03-28T18:56:14.854Z,3.70
2019-03-28T19:01:19.473Z,3.90
2019-03-28T19:06:24.037Z,3.93
2019-03-28T19:11:28.414Z,4.90
2019-03-28T19:16:32.797Z,4.83
2019-03-28T19:21:37.171Z,4.60
2019-03-28T19:26:43.088Z,5.60
2019-03-28T19:31:47.416Z,4.93
2019-03-28T19:36:52.236Z,5.87
2019-03-28T19:41:57.100Z,4.37
2019-03-28T19:47:01.499Z,4.83
2019-03-28T19:52:05.849Z,4.97
2019-03-28T19:57:10.108Z,3.50
2019-03-28T20:02:14.603Z,3.30
2019-03-28T20:07:21.918Z,3.73
2019-03-28T20:12:25.307Z,3.93
2019-03-28T20:17:29.823Z,4.77
2019-03-28T20:22:34.076Z,3.53
2019-03-28T20:27:38.367Z,3.90
2019-03-28T20:32:42.744Z,4.10
2019-03-28T20:37:47.158Z,4.03
2019-03-28T20:42:55.561Z,4.30
2019-03-28T20:48:02.241Z,4.03
2019-03-28T20:53:07.072Z,3.90
2019-03-28T20:58:30.362Z,4.40
2019-03-28T21:03:34.789Z,3.73
2019-03-28T21:08:39.144Z,4.63
2019-03-28T21:13:48.781Z,4.07
2019-03-28T21:18:53.154Z,3.80
2019-03-28T21:23:57.423Z,4.17
2019-03-28T21:29:01.796Z,3.67
2019-03-28T21:34:06.047Z,3.33
2019-03-28T21:39:10.391Z,3.97
2019-03-28T21:44:14.724Z,3.93
2019-03-28T21:49:19.121Z,3.83
2019-03-28T21:54:24.884Z,3.87
2019-03-28T21:59:29.207Z,4.47
2019-03-28T22:04:33.462Z,3.70
2019-03-28T22:09:39.742Z,3.50
2019-03-28T22:14:45.556Z,4.20
2019-03-28T22:19:51.721Z,3.80
2019-03-28T22:24:56.273Z,4.30
2019-03-28T22:30:00.537Z,5.00
2019-03-28T22:35:06.285Z,4.77
2019-03-28T22:40:12.071Z,4.33
2019-03-28T22:45:17.984Z,3.93
2019-03-28T22:50:22.388Z,4.30
2019-03-28T22:55:26.944Z,4.50
2019-03-28T23:00:53.037Z,4.60
2019-03-28T23:05:57.475Z,4.20
2019-03-28T23:11:01.749Z,4.43
2019-03-28T23:16:26.711Z,4.10
2019-03-28T23:21:31.052Z,4.10
2019-03-28T23:26:35.768Z,4.90
2019-03-28T23:31:40.048Z,4.17
2019-03-28T23:36:44.565Z,4.27
2019-03-28T23:41:51.900Z,4.50
2019-03-28T23:46:56.166Z,4.80
2019-03-28T23:52:00.469Z,4.90
2019-03-28T23:57:04.691Z,4.80
